Airfield :
LOGIN :

Register | Disclaimer

   EN    FR    IT 

 










Legend :    VFR   Marginal VFR   IFR   Intensive IFR   Very Intensive IFR
Visi :
Ceiling :
>= 8 km
>= 3000ft
5 to 8 km
1000 to 3000 ft
1500m to 5 km
500 to 1000 ft
800 to 1500m
200 to 500 ft
< 800m
< 200 ft
Symbols :   Thunderstorms  Fog  Heavy snow  Heavy precipitations  Wind > 20 kt
SIGMETs :     Misc.  Thunderstorms  Icing  Turbulence  Mountain Waves  Volcanic Ashes







- Airport Elevation : 26 ft
- IATA code : GLA
- Download approach charts


EGPF - Glasgow

CURRENT METAR :
  • 201920Z AUTO 27009KT 9999 NCD 16/09 Q1009

EXPIRED METARs :
  • 201850Z AUTO 28011KT 9999 NCD 17/09 Q1009
  • 201820Z AUTO 29010KT 9999 NCD 17/10 Q1008
  • 201750Z AUTO 30009KT 270V340 9999 SCT038 17/10 Q1008
  • 201720Z AUTO 28012KT 9999 FEW034 17/10 Q1007
  • 201650Z AUTO 27014KT 9999 SCT031 SCT037 17/11 Q1007

TAF TAF EGPF
Valid from the 20 at 18:00 until the 21 at 18:00 UTC


201700Z 2018/2118 27010KT 9999 SCT030
PROB30
TEMPO 2100/2107 6000 BKN014
PROB30
TEMPO 2111/2116 8000 -SHRA
BECMG 2112/2115 20012KT
TEMPO 2116/2118 5000 SHRA RA
ATIS : +44 141 887 7449
No reported NOTAMs for that airfield.



MET'MAP, your aeronautical weather chart ! - Copyright ORBIFLY December 2007 - Disclaimer

ORBIFLY MET'MAP TEAM :

Programming & Development : Alexandra Zaïnal
Concept & Development : Baudouin d'Aumeries
Co-Development & Prog : Marc-Olivier Méhu
Technical & hardware support : Manuel Goepfert

Contact : metmap@orbifly.com




SOURCES & CREDITS :

   NOAA